sensor_id;sensor_type;location;lat;lon;timestamp;temperature;humidity
59098;DHT22;44883;52.760;6.610;2022-09-09T00:02:38;14.50;99.90
59098;DHT22;44883;52.760;6.610;2022-09-09T00:08:15;14.40;99.90
59098;DHT22;44883;52.760;6.610;2022-09-09T00:10:43;14.30;99.90
59098;DHT22;44883;52.760;6.610;2022-09-09T00:13:17;14.30;99.90
59098;DHT22;44883;52.760;6.610;2022-09-09T00:15:57;14.20;99.90
59098;DHT22;44883;52.760;6.610;2022-09-09T00:18:29;14.30;99.90
59098;DHT22;44883;52.760;6.610;2022-09-09T00:21:12;14.30;99.90
59098;DHT22;44883;52.760;6.610;2022-09-09T00:23:51;14.30;99.90
59098;DHT22;44883;52.760;6.610;2022-09-09T00:26:38;14.30;99.90
59098;DHT22;44883;52.760;6.610;2022-09-09T00:29:23;14.30;99.90
59098;DHT22;44883;52.760;6.610;2022-09-09T00:31:57;14.30;99.90
59098;DHT22;44883;52.760;6.610;2022-09-09T00:34:26;14.30;99.90
59098;DHT22;44883;52.760;6.610;2022-09-09T00:36:53;14.30;99.90
59098;DHT22;44883;52.760;6.610;2022-09-09T00:39:48;14.30;99.90
59098;DHT22;44883;52.760;6.610;2022-09-09T00:42:41;14.30;99.90
59098;DHT22;44883;52.760;6.610;2022-09-09T00:45:34;14.30;99.90
59098;DHT22;44883;52.760;6.610;2022-09-09T00:48:10;14.30;99.90
59098;DHT22;44883;52.760;6.610;2022-09-09T00:51:02;14.30;99.90
59098;DHT22;44883;52.760;6.610;2022-09-09T00:53:51;14.40;99.90
59098;DHT22;44883;52.760;6.610;2022-09-09T00:56:26;14.40;99.90
59098;DHT22;44883;52.760;6.610;2022-09-09T00:59:16;14.50;99.90
59098;DHT22;44883;52.760;6.610;2022-09-09T01:01:46;14.50;99.90
59098;DHT22;44883;52.760;6.610;2022-09-09T01:04:26;14.50;99.90
59098;DHT22;44883;52.760;6.610;2022-09-09T01:07:06;14.50;99.90
59098;DHT22;44883;52.760;6.610;2022-09-09T01:09:42;14.50;99.90
59098;DHT22;44883;52.760;6.610;2022-09-09T01:12:24;14.50;99.90
59098;DHT22;44883;52.760;6.610;2022-09-09T01:15:17;14.50;99.90
59098;DHT22;44883;52.760;6.610;2022-09-09T01:20:15;14.60;99.90
59098;DHT22;44883;52.760;6.610;2022-09-09T01:28:27;14.70;99.90
59098;DHT22;44883;52.760;6.610;2022-09-09T01:30:54;14.70;99.90
59098;DHT22;44883;52.760;6.610;2022-09-09T01:33:20;14.70;99.90
59098;DHT22;44883;52.760;6.610;2022-09-09T01:35:53;14.70;99.90
59098;DHT22;44883;52.760;6.610;2022-09-09T01:38:21;14.80;99.90
59098;DHT22;44883;52.760;6.610;2022-09-09T01:40:47;14.80;99.90
59098;DHT22;44883;52.760;6.610;2022-09-09T01:43:13;14.80;99.90
59098;DHT22;44883;52.760;6.610;2022-09-09T01:45:39;14.80;99.90
59098;DHT22;44883;52.760;6.610;2022-09-09T01:48:06;14.80;99.90
59098;DHT22;44883;52.760;6.610;2022-09-09T01:50:32;14.90;99.90
59098;DHT22;44883;52.760;6.610;2022-09-09T01:52:59;14.90;99.90
59098;DHT22;44883;52.760;6.610;2022-09-09T01:55:31;14.90;99.90
59098;DHT22;44883;52.760;6.610;2022-09-09T01:58:17;14.90;99.90
59098;DHT22;44883;52.760;6.610;2022-09-09T02:01:02;14.90;99.90
59098;DHT22;44883;52.760;6.610;2022-09-09T02:03:33;14.90;99.90
59098;DHT22;44883;52.760;6.610;2022-09-09T02:08:47;14.90;99.90
59098;DHT22;44883;52.760;6.610;2022-09-09T02:11:19;14.90;99.90
59098;DHT22;44883;52.760;6.610;2022-09-09T02:13:47;14.90;99.90
59098;DHT22;44883;52.760;6.610;2022-09-09T02:16:23;14.90;99.90
59098;DHT22;44883;52.760;6.610;2022-09-09T02:21:34;14.90;99.90
59098;DHT22;44883;52.760;6.610;2022-09-09T02:24:06;14.90;99.90
59098;DHT22;44883;52.760;6.610;2022-09-09T02:26:38;14.90;99.90
59098;DHT22;44883;52.760;6.610;2022-09-09T02:29:09;14.90;99.90
59098;DHT22;44883;52.760;6.610;2022-09-09T02:31:37;14.80;99.90
59098;DHT22;44883;52.760;6.610;2022-09-09T02:34:05;14.90;99.90
59098;DHT22;44883;52.760;6.610;2022-09-09T02:36:32;14.90;99.90
59098;DHT22;44883;52.760;6.610;2022-09-09T02:38:59;14.90;99.90
59098;DHT22;44883;52.760;6.610;2022-09-09T02:41:33;14.90;99.90
59098;DHT22;44883;52.760;6.610;2022-09-09T02:43:59;14.90;99.90
59098;DHT22;44883;52.760;6.610;2022-09-09T02:49:10;14.90;99.90
59098;DHT22;44883;52.760;6.610;2022-09-09T02:52:06;14.90;99.90
59098;DHT22;44883;52.760;6.610;2022-09-09T02:54:35;14.90;99.90
59098;DHT22;44883;52.760;6.610;2022-09-09T02:57:07;14.90;99.90
59098;DHT22;44883;52.760;6.610;2022-09-09T02:59:33;14.90;99.90
59098;DHT22;44883;52.760;6.610;2022-09-09T03:01:59;14.80;99.90
59098;DHT22;44883;52.760;6.610;2022-09-09T03:04:25;14.90;99.90
59098;DHT22;44883;52.760;6.610;2022-09-09T03:06:50;14.90;99.90
59098;DHT22;44883;52.760;6.610;2022-09-09T03:09:16;14.90;99.90
59098;DHT22;44883;52.760;6.610;2022-09-09T03:11:42;14.90;99.90
59098;DHT22;44883;52.760;6.610;2022-09-09T03:14:07;14.90;99.90
59098;DHT22;44883;52.760;6.610;2022-09-09T03:16:34;14.80;99.90
59098;DHT22;44883;52.760;6.610;2022-09-09T03:19:00;14.80;99.90
59098;DHT22;44883;52.760;6.610;2022-09-09T03:21:26;14.80;99.90
59098;DHT22;44883;52.760;6.610;2022-09-09T03:23:52;14.80;99.90
59098;DHT22;44883;52.760;6.610;2022-09-09T03:26:17;14.70;99.90
59098;DHT22;44883;52.760;6.610;2022-09-09T03:28:43;14.70;99.90
59098;DHT22;44883;52.760;6.610;2022-09-09T03:31:10;14.70;99.90
59098;DHT22;44883;52.760;6.610;2022-09-09T03:33:39;14.80;99.90
59098;DHT22;44883;52.760;6.610;2022-09-09T03:36:07;14.70;99.90
59098;DHT22;44883;52.760;6.610;2022-09-09T03:38:34;14.70;99.90
59098;DHT22;44883;52.760;6.610;2022-09-09T03:41:00;14.70;99.90
59098;DHT22;44883;52.760;6.610;2022-09-09T03:43:27;14.70;99.90
59098;DHT22;44883;52.760;6.610;2022-09-09T03:45:53;14.60;99.90
59098;DHT22;44883;52.760;6.610;2022-09-09T03:48:22;14.70;99.90
59098;DHT22;44883;52.760;6.610;2022-09-09T03:50:50;14.70;99.90
59098;DHT22;44883;52.760;6.610;2022-09-09T03:53:17;14.70;99.90
59098;DHT22;44883;52.760;6.610;2022-09-09T03:55:48;14.70;99.90
59098;DHT22;44883;52.760;6.610;2022-09-09T03:58:15;14.70;99.90
59098;DHT22;44883;52.760;6.610;2022-09-09T04:00:41;14.70;99.90
59098;DHT22;44883;52.760;6.610;2022-09-09T04:03:10;14.70;99.90
59098;DHT22;44883;52.760;6.610;2022-09-09T04:05:36;14.70;99.90
59098;DHT22;44883;52.760;6.610;2022-09-09T04:08:07;14.70;99.90
59098;DHT22;44883;52.760;6.610;2022-09-09T04:10:34;14.60;99.90
59098;DHT22;44883;52.760;6.610;2022-09-09T04:13:03;14.60;99.90
59098;DHT22;44883;52.760;6.610;2022-09-09T04:15:30;14.60;99.90
59098;DHT22;44883;52.760;6.610;2022-09-09T04:17:55;14.60;99.90
59098;DHT22;44883;52.760;6.610;2022-09-09T04:20:21;14.60;99.90
59098;DHT22;44883;52.760;6.610;2022-09-09T04:22:47;14.60;99.90
59098;DHT22;44883;52.760;6.610;2022-09-09T04:25:13;14.60;99.90
59098;DHT22;44883;52.760;6.610;2022-09-09T04:27:39;14.60;99.90
59098;DHT22;44883;52.760;6.610;2022-09-09T04:30:06;14.60;99.90
59098;DHT22;44883;52.760;6.610;2022-09-09T04:32:36;14.60;99.90
59098;DHT22;44883;52.760;6.610;2022-09-09T04:35:02;14.50;99.90
59098;DHT22;44883;52.760;6.610;2022-09-09T04:37:28;14.50;99.90
59098;DHT22;44883;52.760;6.610;2022-09-09T04:39:54;14.50;99.90
59098;DHT22;44883;52.760;6.610;2022-09-09T04:42:19;14.50;99.90
59098;DHT22;44883;52.760;6.610;2022-09-09T04:44:45;14.60;99.90
59098;DHT22;44883;52.760;6.610;2022-09-09T04:47:11;14.50;99.90
59098;DHT22;44883;52.760;6.610;2022-09-09T04:49:36;14.50;99.90
59098;DHT22;44883;52.760;6.610;2022-09-09T04:52:03;14.50;99.90
59098;DHT22;44883;52.760;6.610;2022-09-09T04:54:29;14.50;99.90
59098;DHT22;44883;52.760;6.610;2022-09-09T04:56:55;14.50;99.90
59098;DHT22;44883;52.760;6.610;2022-09-09T04:59:21;14.50;99.90
59098;DHT22;44883;52.760;6.610;2022-09-09T05:01:47;14.50;99.90
59098;DHT22;44883;52.760;6.610;2022-09-09T05:04:13;14.50;99.90
59098;DHT22;44883;52.760;6.610;2022-09-09T05:06:42;14.40;99.90
59098;DHT22;44883;52.760;6.610;2022-09-09T05:09:08;14.50;99.90
59098;DHT22;44883;52.760;6.610;2022-09-09T05:11:34;14.40;99.90
59098;DHT22;44883;52.760;6.610;2022-09-09T05:14:03;14.40;99.90
59098;DHT22;44883;52.760;6.610;2022-09-09T05:16:29;14.40;99.90
59098;DHT22;44883;52.760;6.610;2022-09-09T05:18:55;14.40;99.90
59098;DHT22;44883;52.760;6.610;2022-09-09T05:21:23;14.40;99.90
59098;DHT22;44883;52.760;6.610;2022-09-09T05:23:49;14.50;99.90
59098;DHT22;44883;52.760;6.610;2022-09-09T05:26:17;14.50;99.90
59098;DHT22;44883;52.760;6.610;2022-09-09T05:28:43;14.50;99.90
59098;DHT22;44883;52.760;6.610;2022-09-09T05:31:10;14.70;99.90
59098;DHT22;44883;52.760;6.610;2022-09-09T05:33:38;15.20;99.90
59098;DHT22;44883;52.760;6.610;2022-09-09T05:36:08;15.80;99.90
59098;DHT22;44883;52.760;6.610;2022-09-09T05:38:34;16.50;99.90
59098;DHT22;44883;52.760;6.610;2022-09-09T05:41:01;17.10;99.90
59098;DHT22;44883;52.760;6.610;2022-09-09T05:43:28;17.70;99.90
59098;DHT22;44883;52.760;6.610;2022-09-09T05:46:08;18.10;99.90
59098;DHT22;44883;52.760;6.610;2022-09-09T05:48:39;18.70;99.90
59098;DHT22;44883;52.760;6.610;2022-09-09T05:51:06;18.90;99.90
59098;DHT22;44883;52.760;6.610;2022-09-09T05:53:34;18.60;99.90
59098;DHT22;44883;52.760;6.610;2022-09-09T05:56:04;18.20;99.90
59098;DHT22;44883;52.760;6.610;2022-09-09T05:58:34;17.80;99.90
59098;DHT22;44883;52.760;6.610;2022-09-09T06:01:10;17.40;99.90
59098;DHT22;44883;52.760;6.610;2022-09-09T06:03:38;17.10;99.90
59098;DHT22;44883;52.760;6.610;2022-09-09T06:06:06;16.90;99.90
59098;DHT22;44883;52.760;6.610;2022-09-09T06:08:33;16.70;99.90
59098;DHT22;44883;52.760;6.610;2022-09-09T06:11:08;16.60;99.90
59098;DHT22;44883;52.760;6.610;2022-09-09T06:13:33;16.40;99.90
59098;DHT22;44883;52.760;6.610;2022-09-09T06:16:00;16.30;99.90
59098;DHT22;44883;52.760;6.610;2022-09-09T06:18:26;16.20;99.90
59098;DHT22;44883;52.760;6.610;2022-09-09T06:20:57;16.10;99.90
59098;DHT22;44883;52.760;6.610;2022-09-09T06:23:23;16.00;99.90
59098;DHT22;44883;52.760;6.610;2022-09-09T06:25:48;15.80;99.90
59098;DHT22;44883;52.760;6.610;2022-09-09T06:28:15;15.80;99.90
59098;DHT22;44883;52.760;6.610;2022-09-09T06:30:42;15.70;99.90
59098;DHT22;44883;52.760;6.610;2022-09-09T06:33:08;15.60;99.90
59098;DHT22;44883;52.760;6.610;2022-09-09T06:35:35;15.50;99.90
59098;DHT22;44883;52.760;6.610;2022-09-09T06:38:00;15.50;99.90
59098;DHT22;44883;52.760;6.610;2022-09-09T06:40:26;15.50;99.90
59098;DHT22;44883;52.760;6.610;2022-09-09T06:42:51;15.40;99.90
59098;DHT22;44883;52.760;6.610;2022-09-09T06:45:17;15.40;99.90
59098;DHT22;44883;52.760;6.610;2022-09-09T06:47:43;15.40;99.90
59098;DHT22;44883;52.760;6.610;2022-09-09T06:50:09;15.50;99.90
59098;DHT22;44883;52.760;6.610;2022-09-09T06:52:35;15.50;99.90
59098;DHT22;44883;52.760;6.610;2022-09-09T06:55:01;15.50;99.90
59098;DHT22;44883;52.760;6.610;2022-09-09T06:57:27;15.60;99.90
59098;DHT22;44883;52.760;6.610;2022-09-09T06:59:53;15.70;99.90
59098;DHT22;44883;52.760;6.610;2022-09-09T07:02:18;15.70;99.90
59098;DHT22;44883;52.760;6.610;2022-09-09T07:04:44;15.80;99.90
59098;DHT22;44883;52.760;6.610;2022-09-09T07:07:09;15.80;99.90
59098;DHT22;44883;52.760;6.610;2022-09-09T07:09:37;15.90;99.90
59098;DHT22;44883;52.760;6.610;2022-09-09T07:12:03;16.10;99.90
59098;DHT22;44883;52.760;6.610;2022-09-09T07:14:31;16.70;99.90
59098;DHT22;44883;52.760;6.610;2022-09-09T07:16:58;17.40;99.90
59098;DHT22;44883;52.760;6.610;2022-09-09T07:19:23;17.80;99.90
59098;DHT22;44883;52.760;6.610;2022-09-09T07:21:49;18.30;99.90
59098;DHT22;44883;52.760;6.610;2022-09-09T07:24:15;19.50;99.90
59098;DHT22;44883;52.760;6.610;2022-09-09T07:26:40;20.00;99.90
59098;DHT22;44883;52.760;6.610;2022-09-09T07:29:07;20.40;99.90
59098;DHT22;44883;52.760;6.610;2022-09-09T07:31:36;21.70;99.90
59098;DHT22;44883;52.760;6.610;2022-09-09T07:34:03;23.30;96.90
59098;DHT22;44883;52.760;6.610;2022-09-09T07:36:39;24.50;93.60
59098;DHT22;44883;52.760;6.610;2022-09-09T07:39:08;25.20;82.80
59098;DHT22;44883;52.760;6.610;2022-09-09T07:41:38;25.40;87.40
59098;DHT22;44883;52.760;6.610;2022-09-09T07:44:10;25.90;79.90
59098;DHT22;44883;52.760;6.610;2022-09-09T07:46:37;25.60;81.40
59098;DHT22;44883;52.760;6.610;2022-09-09T07:49:04;25.30;81.50
59098;DHT22;44883;52.760;6.610;2022-09-09T07:51:32;24.60;83.30
59098;DHT22;44883;52.760;6.610;2022-09-09T07:54:00;23.90;86.90
59098;DHT22;44883;52.760;6.610;2022-09-09T07:56:28;23.50;89.20
59098;DHT22;44883;52.760;6.610;2022-09-09T07:58:55;23.00;91.00
59098;DHT22;44883;52.760;6.610;2022-09-09T08:01:29;22.40;91.90
59098;DHT22;44883;52.760;6.610;2022-09-09T08:04:00;21.90;93.00
59098;DHT22;44883;52.760;6.610;2022-09-09T08:06:31;22.30;93.80
59098;DHT22;44883;52.760;6.610;2022-09-09T08:08:58;23.10;92.80
59098;DHT22;44883;52.760;6.610;2022-09-09T08:11:26;22.90;91.50
59098;DHT22;44883;52.760;6.610;2022-09-09T08:13:52;22.70;92.20
59098;DHT22;44883;52.760;6.610;2022-09-09T08:16:22;23.00;92.20
59098;DHT22;44883;52.760;6.610;2022-09-09T08:18:49;22.70;91.70
59098;DHT22;44883;52.760;6.610;2022-09-09T08:21:17;22.10;93.40
59098;DHT22;44883;52.760;6.610;2022-09-09T08:23:45;21.70;94.00
59098;DHT22;44883;52.760;6.610;2022-09-09T08:26:22;21.70;95.00
59098;DHT22;44883;52.760;6.610;2022-09-09T08:28:53;21.50;94.60
59098;DHT22;44883;52.760;6.610;2022-09-09T08:31:19;21.10;95.60
59098;DHT22;44883;52.760;6.610;2022-09-09T08:33:46;20.50;95.70
59098;DHT22;44883;52.760;6.610;2022-09-09T08:36:14;20.20;97.60
59098;DHT22;44883;52.760;6.610;2022-09-09T08:38:41;20.10;98.40
59098;DHT22;44883;52.760;6.610;2022-09-09T08:41:12;20.00;99.10
59098;DHT22;44883;52.760;6.610;2022-09-09T08:43:43;19.90;99.90
59098;DHT22;44883;52.760;6.610;2022-09-09T08:46:32;19.80;99.90
59098;DHT22;44883;52.760;6.610;2022-09-09T08:51:56;19.50;99.90
59098;DHT22;44883;52.760;6.610;2022-09-09T08:54:23;19.40;99.90
59098;DHT22;44883;52.760;6.610;2022-09-09T08:56:51;19.40;99.90
59098;DHT22;44883;52.760;6.610;2022-09-09T08:59:17;19.50;99.90
59098;DHT22;44883;52.760;6.610;2022-09-09T09:01:56;19.90;99.90
59098;DHT22;44883;52.760;6.610;2022-09-09T09:04:37;20.70;99.90
59098;DHT22;44883;52.760;6.610;2022-09-09T09:10:02;20.60;98.40
59098;DHT22;44883;52.760;6.610;2022-09-09T09:12:38;20.20;98.70
59098;DHT22;44883;52.760;6.610;2022-09-09T09:15:18;19.80;99.30
59098;DHT22;44883;52.760;6.610;2022-09-09T09:17:44;19.60;99.90
59098;DHT22;44883;52.760;6.610;2022-09-09T09:20:20;19.50;99.90
59098;DHT22;44883;52.760;6.610;2022-09-09T09:22:50;19.40;99.90
59098;DHT22;44883;52.760;6.610;2022-09-09T09:25:23;19.40;99.90
59098;DHT22;44883;52.760;6.610;2022-09-09T09:28:07;19.50;99.90
59098;DHT22;44883;52.760;6.610;2022-09-09T09:30:39;20.20;99.90
59098;DHT22;44883;52.760;6.610;2022-09-09T09:33:35;21.40;97.80
59098;DHT22;44883;52.760;6.610;2022-09-09T09:36:02;22.40;94.30
59098;DHT22;44883;52.760;6.610;2022-09-09T09:38:29;22.70;94.00
59098;DHT22;44883;52.760;6.610;2022-09-09T09:40:57;23.10;92.80
59098;DHT22;44883;52.760;6.610;2022-09-09T09:43:34;22.80;92.60
59098;DHT22;44883;52.760;6.610;2022-09-09T09:46:02;22.20;92.20
59098;DHT22;44883;52.760;6.610;2022-09-09T09:48:29;21.60;93.40
59098;DHT22;44883;52.760;6.610;2022-09-09T09:51:00;21.20;94.60
59098;DHT22;44883;52.760;6.610;2022-09-09T09:53:31;21.00;94.90
59098;DHT22;44883;52.760;6.610;2022-09-09T09:56:02;20.80;95.40
59098;DHT22;44883;52.760;6.610;2022-09-09T09:58:38;20.60;96.30
59098;DHT22;44883;52.760;6.610;2022-09-09T10:04:17;20.20;97.40
59098;DHT22;44883;52.760;6.610;2022-09-09T10:06:44;19.90;97.50
59098;DHT22;44883;52.760;6.610;2022-09-09T10:09:30;19.90;98.60
59098;DHT22;44883;52.760;6.610;2022-09-09T10:15:18;20.50;97.60
59098;DHT22;44883;52.760;6.610;2022-09-09T10:18:15;21.00;96.40
59098;DHT22;44883;52.760;6.610;2022-09-09T10:21:07;21.40;95.30
59098;DHT22;44883;52.760;6.610;2022-09-09T10:26:42;22.80;91.30
59098;DHT22;44883;52.760;6.610;2022-09-09T10:40:01;22.10;92.90
59098;DHT22;44883;52.760;6.610;2022-09-09T10:42:31;22.30;91.80
59098;DHT22;44883;52.760;6.610;2022-09-09T10:48:12;22.90;90.10
59098;DHT22;44883;52.760;6.610;2022-09-09T10:50:50;22.50;88.60
59098;DHT22;44883;52.760;6.610;2022-09-09T10:56:11;21.70;90.40
59098;DHT22;44883;52.760;6.610;2022-09-09T10:58:58;21.30;90.60
59098;DHT22;44883;52.760;6.610;2022-09-09T11:01:29;21.00;91.30
59098;DHT22;44883;52.760;6.610;2022-09-09T11:04:02;20.80;92.50
59098;DHT22;44883;52.760;6.610;2022-09-09T11:06:36;20.70;92.90
59098;DHT22;44883;52.760;6.610;2022-09-09T11:09:05;20.90;93.30
59098;DHT22;44883;52.760;6.610;2022-09-09T11:11:44;21.10;92.40
59098;DHT22;44883;52.760;6.610;2022-09-09T11:14:26;21.20;92.30
59098;DHT22;44883;52.760;6.610;2022-09-09T11:17:00;21.20;91.80
59098;DHT22;44883;52.760;6.610;2022-09-09T11:19:34;21.20;92.00
59098;DHT22;44883;52.760;6.610;2022-09-09T11:24:53;21.20;92.00
59098;DHT22;44883;52.760;6.610;2022-09-09T11:27:27;20.90;91.80
59098;DHT22;44883;52.760;6.610;2022-09-09T11:33:25;20.70;93.10
59098;DHT22;44883;52.760;6.610;2022-09-09T11:38:50;20.20;94.40
59098;DHT22;44883;52.760;6.610;2022-09-09T11:41:20;20.10;95.00
59098;DHT22;44883;52.760;6.610;2022-09-09T11:43:51;20.10;95.70
59098;DHT22;44883;52.760;6.610;2022-09-09T11:46:18;20.20;95.40
59098;DHT22;44883;52.760;6.610;2022-09-09T11:48:46;20.20;95.70
59098;DHT22;44883;52.760;6.610;2022-09-09T11:51:26;20.30;95.30
59098;DHT22;44883;52.760;6.610;2022-09-09T11:53:55;20.50;94.70
59098;DHT22;44883;52.760;6.610;2022-09-09T11:56:30;20.80;94.30
59098;DHT22;44883;52.760;6.610;2022-09-09T11:59:05;21.10;93.60
59098;DHT22;44883;52.760;6.610;2022-09-09T12:06:54;21.40;91.00
59098;DHT22;44883;52.760;6.610;2022-09-09T12:09:47;21.20;91.40
59098;DHT22;44883;52.760;6.610;2022-09-09T12:14:56;21.00;92.10
59098;DHT22;44883;52.760;6.610;2022-09-09T12:17:24;20.90;92.60
59098;DHT22;44883;52.760;6.610;2022-09-09T12:20:16;20.90;93.00
59098;DHT22;44883;52.760;6.610;2022-09-09T12:28:09;20.90;92.40
59098;DHT22;44883;52.760;6.610;2022-09-09T12:33:23;21.00;92.60
59098;DHT22;44883;52.760;6.610;2022-09-09T12:35:59;21.10;92.10
59098;DHT22;44883;52.760;6.610;2022-09-09T12:38:32;21.20;91.80
59098;DHT22;44883;52.760;6.610;2022-09-09T12:40:59;21.10;91.80
59098;DHT22;44883;52.760;6.610;2022-09-09T12:43:27;20.90;92.20
59098;DHT22;44883;52.760;6.610;2022-09-09T12:46:33;20.60;93.10
59098;DHT22;44883;52.760;6.610;2022-09-09T12:49:02;20.20;95.60
59098;DHT22;44883;52.760;6.610;2022-09-09T12:51:32;19.90;97.00
59098;DHT22;44883;52.760;6.610;2022-09-09T12:53:59;19.90;98.90
59098;DHT22;44883;52.760;6.610;2022-09-09T12:56:27;20.00;99.90
59098;DHT22;44883;52.760;6.610;2022-09-09T12:58:56;20.20;99.90
59098;DHT22;44883;52.760;6.610;2022-09-09T13:01:25;20.40;99.90
59098;DHT22;44883;52.760;6.610;2022-09-09T13:03:51;20.50;99.60
59098;DHT22;44883;52.760;6.610;2022-09-09T13:06:21;20.60;98.90
59098;DHT22;44883;52.760;6.610;2022-09-09T13:08:52;20.60;99.20
59098;DHT22;44883;52.760;6.610;2022-09-09T13:11:29;20.70;99.10
59098;DHT22;44883;52.760;6.610;2022-09-09T13:13:57;20.80;98.10
59098;DHT22;44883;52.760;6.610;2022-09-09T13:19:01;20.70;95.50
59098;DHT22;44883;52.760;6.610;2022-09-09T13:21:35;20.60;95.70
59098;DHT22;44883;52.760;6.610;2022-09-09T13:24:01;20.60;95.90
59098;DHT22;44883;52.760;6.610;2022-09-09T13:26:33;20.50;96.20
59098;DHT22;44883;52.760;6.610;2022-09-09T13:29:17;20.50;96.10
59098;DHT22;44883;52.760;6.610;2022-09-09T13:31:44;20.60;96.50
59098;DHT22;44883;52.760;6.610;2022-09-09T13:34:32;20.50;95.80
59098;DHT22;44883;52.760;6.610;2022-09-09T13:37:01;20.40;95.40
59098;DHT22;44883;52.760;6.610;2022-09-09T13:39:28;20.30;95.20
59098;DHT22;44883;52.760;6.610;2022-09-09T13:41:53;20.30;95.40
59098;DHT22;44883;52.760;6.610;2022-09-09T13:44:28;20.40;95.70
59098;DHT22;44883;52.760;6.610;2022-09-09T13:47:05;20.50;94.80
59098;DHT22;44883;52.760;6.610;2022-09-09T13:49:32;20.50;94.50
59098;DHT22;44883;52.760;6.610;2022-09-09T13:52:08;20.50;95.00
59098;DHT22;44883;52.760;6.610;2022-09-09T13:54:34;20.60;95.20
59098;DHT22;44883;52.760;6.610;2022-09-09T13:56:59;20.60;95.40
59098;DHT22;44883;52.760;6.610;2022-09-09T13:59:26;20.60;95.30
59098;DHT22;44883;52.760;6.610;2022-09-09T14:01:52;20.50;95.20
59098;DHT22;44883;52.760;6.610;2022-09-09T14:04:18;20.40;95.40
59098;DHT22;44883;52.760;6.610;2022-09-09T14:06:46;20.30;95.70
59098;DHT22;44883;52.760;6.610;2022-09-09T14:09:14;20.60;95.50
59098;DHT22;44883;52.760;6.610;2022-09-09T14:11:40;20.90;94.90
59098;DHT22;44883;52.760;6.610;2022-09-09T14:14:06;21.10;95.00
59098;DHT22;44883;52.760;6.610;2022-09-09T14:16:32;21.10;94.50
59098;DHT22;44883;52.760;6.610;2022-09-09T14:18:58;21.10;95.30
59098;DHT22;44883;52.760;6.610;2022-09-09T14:21:25;21.10;94.40
59098;DHT22;44883;52.760;6.610;2022-09-09T14:23:51;21.10;94.70
59098;DHT22;44883;52.760;6.610;2022-09-09T14:26:18;21.00;94.10
59098;DHT22;44883;52.760;6.610;2022-09-09T14:28:47;21.10;94.80
59098;DHT22;44883;52.760;6.610;2022-09-09T14:31:12;21.00;94.90
59098;DHT22;44883;52.760;6.610;2022-09-09T14:33:39;20.90;94.80
59098;DHT22;44883;52.760;6.610;2022-09-09T14:36:05;20.70;95.00
59098;DHT22;44883;52.760;6.610;2022-09-09T14:38:35;20.60;95.60
59098;DHT22;44883;52.760;6.610;2022-09-09T14:41:15;20.40;96.10
59098;DHT22;44883;52.760;6.610;2022-09-09T14:43:42;20.40;96.60
59098;DHT22;44883;52.760;6.610;2022-09-09T14:46:13;20.50;96.50
59098;DHT22;44883;52.760;6.610;2022-09-09T14:48:39;20.60;96.40
59098;DHT22;44883;52.760;6.610;2022-09-09T14:51:13;20.50;96.30
59098;DHT22;44883;52.760;6.610;2022-09-09T14:53:40;20.40;96.30
59098;DHT22;44883;52.760;6.610;2022-09-09T14:56:12;20.30;97.10
59098;DHT22;44883;52.760;6.610;2022-09-09T14:58:37;20.30;97.00
59098;DHT22;44883;52.760;6.610;2022-09-09T15:01:08;20.30;96.60
59098;DHT22;44883;52.760;6.610;2022-09-09T15:03:38;20.30;96.40
59098;DHT22;44883;52.760;6.610;2022-09-09T15:06:08;20.20;96.70
59098;DHT22;44883;52.760;6.610;2022-09-09T15:08:35;20.10;96.90
59098;DHT22;44883;52.760;6.610;2022-09-09T15:11:05;19.90;97.10
59098;DHT22;44883;52.760;6.610;2022-09-09T15:13:31;19.80;97.10
59098;DHT22;44883;52.760;6.610;2022-09-09T15:16:15;19.90;97.50
59098;DHT22;44883;52.760;6.610;2022-09-09T15:18:42;19.90;97.60
59098;DHT22;44883;52.760;6.610;2022-09-09T15:21:13;19.80;97.80
59098;DHT22;44883;52.760;6.610;2022-09-09T15:23:39;19.70;97.70
59098;DHT22;44883;52.760;6.610;2022-09-09T15:26:06;19.60;98.00
59098;DHT22;44883;52.760;6.610;2022-09-09T15:28:36;19.50;98.60
59098;DHT22;44883;52.760;6.610;2022-09-09T15:31:06;19.40;99.00
59098;DHT22;44883;52.760;6.610;2022-09-09T15:33:33;19.40;99.40
59098;DHT22;44883;52.760;6.610;2022-09-09T15:35:59;19.30;99.90
59098;DHT22;44883;52.760;6.610;2022-09-09T15:38:25;19.20;99.90
59098;DHT22;44883;52.760;6.610;2022-09-09T15:40:54;19.10;99.90
59098;DHT22;44883;52.760;6.610;2022-09-09T15:43:21;19.10;99.90
59098;DHT22;44883;52.760;6.610;2022-09-09T15:45:52;19.10;99.90
59098;DHT22;44883;52.760;6.610;2022-09-09T15:48:25;19.10;99.90
59098;DHT22;44883;52.760;6.610;2022-09-09T15:51:04;19.10;99.90
59098;DHT22;44883;52.760;6.610;2022-09-09T15:53:30;19.10;99.90
59098;DHT22;44883;52.760;6.610;2022-09-09T15:55:58;19.10;99.90
59098;DHT22;44883;52.760;6.610;2022-09-09T15:58:24;19.20;99.90
59098;DHT22;44883;52.760;6.610;2022-09-09T16:00:49;19.20;99.90
59098;DHT22;44883;52.760;6.610;2022-09-09T16:03:15;19.30;99.90
59098;DHT22;44883;52.760;6.610;2022-09-09T16:05:41;19.20;99.90
59098;DHT22;44883;52.760;6.610;2022-09-09T16:08:06;19.30;99.90
59098;DHT22;44883;52.760;6.610;2022-09-09T16:10:38;19.30;99.90
59098;DHT22;44883;52.760;6.610;2022-09-09T16:13:04;19.30;99.90
59098;DHT22;44883;52.760;6.610;2022-09-09T16:15:29;19.30;99.90
59098;DHT22;44883;52.760;6.610;2022-09-09T16:17:55;19.30;99.90
59098;DHT22;44883;52.760;6.610;2022-09-09T16:20:20;19.20;99.90
59098;DHT22;44883;52.760;6.610;2022-09-09T16:22:46;19.20;99.90
59098;DHT22;44883;52.760;6.610;2022-09-09T16:25:12;19.20;99.90
59098;DHT22;44883;52.760;6.610;2022-09-09T16:27:37;19.20;99.90
59098;DHT22;44883;52.760;6.610;2022-09-09T16:30:03;19.10;99.90
59098;DHT22;44883;52.760;6.610;2022-09-09T16:32:29;19.00;99.90
59098;DHT22;44883;52.760;6.610;2022-09-09T16:34:55;18.90;99.90
59098;DHT22;44883;52.760;6.610;2022-09-09T16:37:21;18.90;99.90
59098;DHT22;44883;52.760;6.610;2022-09-09T16:39:47;18.90;99.90
59098;DHT22;44883;52.760;6.610;2022-09-09T16:42:12;18.80;99.90
59098;DHT22;44883;52.760;6.610;2022-09-09T16:44:38;18.80;99.90
59098;DHT22;44883;52.760;6.610;2022-09-09T16:47:03;18.70;99.90
59098;DHT22;44883;52.760;6.610;2022-09-09T16:49:29;18.70;99.90
59098;DHT22;44883;52.760;6.610;2022-09-09T16:51:57;18.70;99.90
59098;DHT22;44883;52.760;6.610;2022-09-09T16:54:23;18.60;99.90
59098;DHT22;44883;52.760;6.610;2022-09-09T16:56:50;18.50;99.90
59098;DHT22;44883;52.760;6.610;2022-09-09T16:59:18;18.50;99.90
59098;DHT22;44883;52.760;6.610;2022-09-09T17:01:46;18.50;99.90
59098;DHT22;44883;52.760;6.610;2022-09-09T17:04:14;18.40;99.90
59098;DHT22;44883;52.760;6.610;2022-09-09T17:06:47;18.40;99.90
59098;DHT22;44883;52.760;6.610;2022-09-09T17:09:15;18.30;99.90